createdAt,value
2023-02-22T00:02:26.078Z,26.10
2023-02-22T00:12:33.347Z,26.10
2023-02-22T00:22:42.873Z,26.10
2023-02-22T00:32:51.304Z,26.00
2023-02-22T00:42:59.847Z,25.90
2023-02-22T00:53:08.189Z,25.90
2023-02-22T01:03:23.112Z,25.90
2023-02-22T01:13:30.817Z,25.80
2023-02-22T01:23:41.147Z,25.70
2023-02-22T01:33:48.285Z,25.70
2023-02-22T01:43:56.998Z,25.60
2023-02-22T01:54:09.183Z,25.50
2023-02-22T02:04:26.357Z,25.40
2023-02-22T02:14:41.358Z,25.30
2023-02-22T02:25:22.025Z,25.30
2023-02-22T02:35:40.880Z,25.30
2023-02-22T02:45:54.312Z,25.20
2023-02-22T02:56:04.236Z,25.10
2023-02-22T03:06:42.252Z,25.10
2023-02-22T03:16:55.980Z,25.00
2023-02-22T03:27:10.107Z,25.00
2023-02-22T03:37:32.454Z,24.90
2023-02-22T03:47:44.202Z,24.90
2023-02-22T03:57:57.956Z,25.10
2023-02-22T04:08:07.516Z,25.30
2023-02-22T04:18:16.660Z,25.40
2023-02-22T04:28:26.186Z,25.60
2023-02-22T04:38:45.316Z,25.70
2023-02-22T04:48:52.771Z,25.90
2023-02-22T04:59:04.314Z,26.00
2023-02-22T05:09:20.377Z,26.00
2023-02-22T05:19:29.236Z,26.10
2023-02-22T05:29:36.292Z,26.20
2023-02-22T05:39:47.366Z,26.20
2023-02-22T05:49:56.160Z,26.30
2023-02-22T06:00:07.842Z,26.50
2023-02-22T06:10:20.945Z,26.60
2023-02-22T06:20:31.600Z,26.70
2023-02-22T06:30:39.197Z,26.80
2023-02-22T06:40:48.641Z,26.90
2023-02-22T06:50:55.762Z,27.00
2023-02-22T07:01:04.739Z,27.00
2023-02-22T07:11:11.948Z,27.10
2023-02-22T07:21:21.187Z,27.20
2023-02-22T07:31:29.706Z,27.10
2023-02-22T07:41:38.322Z,27.20
2023-02-22T07:51:54.329Z,27.10
2023-02-22T08:02:02.802Z,27.10
2023-02-22T08:12:11.135Z,27.10
2023-02-22T08:22:21.979Z,27.20
2023-02-22T08:32:29.309Z,27.20
2023-02-22T08:42:38.279Z,27.20
2023-02-22T08:52:45.565Z,27.20
2023-02-22T09:02:54.709Z,27.20
2023-02-22T09:13:02.412Z,27.30
2023-02-22T09:23:12.325Z,27.30
2023-02-22T09:33:21.935Z,27.30
2023-02-22T09:43:41.407Z,27.30
2023-02-22T09:53:51.260Z,27.30
2023-02-22T10:04:06.830Z,27.30
2023-02-22T10:14:57.693Z,27.30
2023-02-22T10:25:09.733Z,27.30
2023-02-22T10:35:25.412Z,27.30
2023-02-22T10:45:37.836Z,27.30
2023-02-22T10:56:09.933Z,27.30
2023-02-22T11:06:24.132Z,27.40
2023-02-22T11:16:35.007Z,27.30
2023-02-22T11:26:49.979Z,27.40
2023-02-22T11:36:57.534Z,27.30
2023-02-22T11:47:07.808Z,27.30
2023-02-22T11:57:27.934Z,27.40
2023-02-22T12:07:51.447Z,27.40
2023-02-22T12:18:07.736Z,27.40
2023-02-22T12:28:25.010Z,27.40
2023-02-22T12:38:38.246Z,27.50
2023-02-22T12:48:54.936Z,27.50
2023-02-22T12:59:09.229Z,27.50
2023-02-22T13:09:44.234Z,27.50
2023-02-22T13:19:56.778Z,27.50
2023-02-22T13:30:07.077Z,27.50
2023-02-22T13:40:38.105Z,27.50
2023-02-22T13:51:08.669Z,27.50
2023-02-22T14:01:43.981Z,27.60
2023-02-22T14:11:59.325Z,27.60
2023-02-22T14:22:10.579Z,27.60
2023-02-22T14:32:20.161Z,27.60
2023-02-22T14:42:34.293Z,27.60
2023-02-22T14:52:47.193Z,27.60
2023-02-22T15:02:58.046Z,27.60
2023-02-22T15:13:11.964Z,27.60
2023-02-22T15:23:19.717Z,27.70
2023-02-22T15:33:38.965Z,27.50
2023-02-22T15:43:46.079Z,27.30
2023-02-22T15:53:54.826Z,27.30
2023-02-22T16:04:02.454Z,27.20
2023-02-22T16:14:28.289Z,27.20
2023-02-22T16:24:37.077Z,27.20
2023-02-22T16:34:45.892Z,27.20
2023-02-22T16:44:53.685Z,27.30
2023-02-22T16:55:02.934Z,26.90
2023-02-22T17:05:15.567Z,26.60
2023-02-22T17:15:29.190Z,26.50
2023-02-22T17:25:40.027Z,26.60
2023-02-22T17:35:50.727Z,26.70
2023-02-22T17:45:58.315Z,26.80
2023-02-22T17:56:30.665Z,26.70
2023-02-22T18:06:44.716Z,26.50
2023-02-22T18:16:53.776Z,26.50
2023-02-22T18:27:06.833Z,26.40
2023-02-22T18:37:21.309Z,26.30
2023-02-22T18:47:28.429Z,26.20
2023-02-22T18:57:40.313Z,26.20
2023-02-22T19:07:47.705Z,26.20
2023-02-22T19:17:56.415Z,26.00
2023-02-22T19:28:03.884Z,25.90
2023-02-22T19:38:12.556Z,25.80
2023-02-22T19:48:19.783Z,25.90
2023-02-22T19:58:28.818Z,26.00
2023-02-22T20:08:35.453Z,26.00
2023-02-22T20:18:44.066Z,25.30
2023-02-22T20:28:52.049Z,24.90
2023-02-22T20:39:02.231Z,24.50
2023-02-22T20:49:12.004Z,24.20
2023-02-22T20:59:22.224Z,24.10
2023-02-22T21:09:28.946Z,24.20
2023-02-22T21:19:37.264Z,24.60
2023-02-22T21:29:43.997Z,25.00
2023-02-22T21:39:52.427Z,25.20
2023-02-22T21:49:59.503Z,25.30
2023-02-22T22:00:18.114Z,25.50
2023-02-22T22:10:28.583Z,25.60
2023-02-22T22:20:39.426Z,25.50
2023-02-22T22:30:46.230Z,25.30
2023-02-22T22:40:54.619Z,25.30
2023-02-22T22:51:07.407Z,25.20
2023-02-22T23:01:20.415Z,25.20
2023-02-22T23:11:27.181Z,25.10
2023-02-22T23:21:36.787Z,25.30
2023-02-22T23:31:43.948Z,25.30
2023-02-22T23:41:53.612Z,25.10
2023-02-22T23:52:03.562Z,25.10
